createdAt,value
2022-08-21T00:00:43.910Z,65.12
2022-08-21T00:03:47.006Z,65.86
2022-08-21T00:06:50.390Z,65.25
2022-08-21T00:09:53.643Z,65.44
2022-08-21T00:12:56.236Z,65.63
2022-08-21T00:15:59.149Z,66.03
2022-08-21T00:19:01.535Z,65.97
2022-08-21T00:22:04.324Z,66.80
2022-08-21T00:25:07.752Z,66.89
2022-08-21T00:28:10.557Z,67.63
2022-08-21T00:31:13.233Z,68.14
2022-08-21T00:34:16.194Z,68.00
2022-08-21T00:37:19.574Z,68.20
2022-08-21T00:40:27.207Z,68.03
2022-08-21T00:43:39.247Z,68.48
2022-08-21T00:46:42.801Z,68.52
2022-08-21T00:49:45.291Z,68.39
2022-08-21T00:52:48.268Z,68.93
2022-08-21T00:55:52.302Z,69.07
2022-08-21T00:58:56.033Z,69.05
2022-08-21T01:01:58.441Z,68.73
2022-08-21T01:05:01.251Z,68.95
2022-08-21T01:08:04.975Z,69.37
2022-08-21T01:11:07.505Z,69.95
2022-08-21T01:14:13.256Z,69.67
2022-08-21T01:17:16.709Z,70.52
2022-08-21T01:20:19.323Z,70.99
2022-08-21T01:23:21.843Z,71.24
2022-08-21T01:26:38.273Z,71.67
2022-08-21T01:29:52.866Z,72.42
2022-08-21T01:32:55.576Z,72.49
2022-08-21T01:35:58.276Z,72.71
2022-08-21T01:39:06.996Z,73.63
2022-08-21T01:42:10.213Z,73.33
2022-08-21T01:45:13.288Z,72.94
2022-08-21T01:48:15.924Z,73.18
2022-08-21T01:51:18.355Z,72.66
2022-08-21T01:54:21.362Z,72.69
2022-08-21T01:57:26.245Z,72.45
2022-08-21T02:00:29.320Z,72.30
2022-08-21T02:03:35.846Z,73.08
2022-08-21T02:06:38.868Z,72.65
2022-08-21T02:09:43.199Z,73.38
2022-08-21T02:12:45.944Z,72.67
2022-08-21T02:15:49.555Z,73.07
2022-08-21T02:18:52.336Z,72.51
2022-08-21T02:21:55.580Z,72.63
2022-08-21T02:24:58.054Z,72.87
2022-08-21T02:28:01.431Z,73.27
2022-08-21T02:31:04.628Z,73.51
2022-08-21T02:34:07.070Z,73.90
2022-08-21T02:37:09.745Z,73.59
2022-08-21T02:40:12.647Z,72.67
2022-08-21T02:43:16.440Z,73.41
2022-08-21T02:46:22.120Z,73.51
2022-08-21T02:49:24.855Z,73.69
2022-08-21T02:52:27.209Z,74.07
2022-08-21T02:55:31.740Z,74.13
2022-08-21T02:58:41.384Z,74.25
2022-08-21T03:01:44.055Z,73.52
2022-08-21T03:04:46.885Z,74.02
2022-08-21T03:07:49.569Z,74.80
2022-08-21T03:10:53.346Z,76.25
2022-08-21T03:13:55.751Z,74.83
2022-08-21T03:16:58.037Z,75.03
2022-08-21T03:20:00.840Z,75.33
2022-08-21T03:23:04.473Z,74.83
2022-08-21T03:26:15.181Z,75.42
2022-08-21T03:29:18.504Z,75.63
2022-08-21T03:32:21.709Z,77.75
2022-08-21T03:35:24.121Z,77.03
2022-08-21T03:38:28.083Z,78.01
2022-08-21T03:41:30.451Z,78.43
2022-08-21T03:44:33.024Z,78.92
2022-08-21T03:47:37.440Z,79.30
2022-08-21T03:50:42.890Z,80.66
2022-08-21T03:53:46.729Z,79.71
2022-08-21T03:56:49.441Z,80.72
2022-08-21T03:59:51.948Z,80.66
2022-08-21T04:02:54.651Z,80.73
2022-08-21T04:05:57.372Z,79.75
2022-08-21T04:08:59.945Z,80.00
2022-08-21T04:12:02.357Z,78.76
2022-08-21T04:15:05.750Z,78.91
2022-08-21T04:18:09.536Z,78.79
2022-08-21T04:21:13.389Z,77.45
2022-08-21T04:24:15.753Z,78.36
2022-08-21T04:27:18.332Z,77.67
2022-08-21T04:30:27.596Z,77.61
2022-08-21T04:33:31.489Z,77.27
2022-08-21T04:36:34.523Z,77.83
2022-08-21T04:39:37.102Z,78.17
2022-08-21T04:42:52.249Z,79.39
2022-08-21T04:45:55.816Z,79.07
2022-08-21T04:48:58.013Z,78.53
2022-08-21T04:52:00.954Z,78.45
2022-08-21T04:55:03.692Z,78.45
2022-08-21T04:58:14.995Z,78.13
2022-08-21T05:01:21.739Z,78.62
2022-08-21T05:04:27.694Z,78.32
2022-08-21T05:07:42.446Z,77.60
2022-08-21T05:10:45.923Z,77.69
2022-08-21T05:13:48.103Z,77.86
2022-08-21T05:16:57.524Z,78.42
2022-08-21T05:19:59.858Z,78.54
2022-08-21T05:23:08.622Z,77.00
2022-08-21T05:26:18.033Z,77.01
2022-08-21T05:29:21.646Z,76.28
2022-08-21T05:32:25.598Z,75.50
2022-08-21T05:35:29.704Z,75.50
2022-08-21T05:38:32.399Z,75.77
2022-08-21T05:41:35.529Z,75.64
2022-08-21T05:44:38.010Z,75.84
2022-08-21T05:47:40.716Z,75.12
2022-08-21T05:50:43.985Z,75.47
2022-08-21T05:53:47.372Z,74.17
2022-08-21T05:56:49.906Z,73.47
2022-08-21T05:59:52.736Z,73.10
2022-08-21T06:02:54.989Z,72.17
2022-08-21T06:05:58.132Z,71.32
2022-08-21T06:12:09.702Z,70.55
2022-08-21T06:15:12.195Z,67.89
2022-08-21T06:18:14.913Z,68.18
2022-08-21T06:21:17.318Z,66.78
2022-08-21T06:24:19.765Z,66.92
2022-08-21T06:27:26.159Z,65.62
2022-08-21T06:33:46.167Z,64.95
2022-08-21T06:36:48.608Z,63.33
2022-08-21T06:39:51.604Z,62.99
2022-08-21T06:42:55.288Z,62.49
2022-08-21T06:45:58.085Z,61.92
2022-08-21T06:49:00.874Z,60.93
2022-08-21T06:52:04.150Z,59.94
2022-08-21T06:55:11.328Z,59.12
2022-08-21T06:58:16.283Z,58.58
2022-08-21T07:01:20.708Z,58.35
2022-08-21T07:04:28.686Z,57.89
2022-08-21T07:07:31.609Z,57.77
2022-08-21T07:10:33.989Z,57.91
2022-08-21T07:13:37.202Z,56.74
2022-08-21T07:16:45.610Z,55.16
2022-08-21T07:19:48.909Z,55.93
2022-08-21T07:22:52.038Z,55.45
2022-08-21T07:25:55.235Z,56.32
2022-08-21T07:28:57.927Z,54.83
2022-08-21T07:32:00.647Z,52.91
2022-08-21T07:35:04.203Z,52.13
2022-08-21T07:38:07.322Z,52.55
2022-08-21T07:41:26.866Z,54.59
2022-08-21T07:44:29.666Z,51.19
2022-08-21T07:47:41.777Z,51.77
2022-08-21T07:50:45.372Z,53.71
2022-08-21T07:53:55.865Z,52.51
2022-08-21T07:56:58.477Z,51.11
2022-08-21T08:00:00.984Z,50.38
2022-08-21T08:03:14.580Z,50.20
2022-08-21T08:06:24.276Z,49.51
2022-08-21T08:09:28.300Z,49.57
2022-08-21T08:12:31.493Z,49.34
2022-08-21T08:15:37.517Z,49.95
2022-08-21T08:18:40.387Z,48.37
2022-08-21T08:21:43.094Z,48.78
2022-08-21T08:24:45.967Z,48.18
2022-08-21T08:27:48.838Z,48.37
2022-08-21T08:30:52.565Z,46.75
2022-08-21T08:33:55.447Z,47.78
2022-08-21T08:36:59.669Z,46.66
2022-08-21T08:40:04.614Z,45.59
2022-08-21T08:43:08.027Z,44.40
2022-08-21T08:46:15.178Z,46.95
2022-08-21T08:49:24.092Z,45.19
2022-08-21T08:52:34.809Z,45.24
2022-08-21T08:55:46.001Z,44.16
2022-08-21T08:58:51.554Z,44.65
2022-08-21T09:01:54.017Z,44.82
2022-08-21T09:04:57.386Z,45.63
2022-08-21T09:08:18.687Z,45.79
2022-08-21T09:11:29.727Z,44.29
2022-08-21T09:14:48.975Z,43.89
2022-08-21T09:18:30.578Z,43.45
2022-08-21T09:22:01.614Z,43.34
2022-08-21T09:25:09.720Z,41.61
2022-08-21T09:28:15.260Z,43.77
2022-08-21T09:31:33.716Z,43.57
2022-08-21T09:34:37.255Z,43.01
2022-08-21T09:38:08.507Z,44.04
2022-08-21T09:41:11.473Z,44.15
2022-08-21T09:44:14.124Z,44.73
2022-08-21T09:47:26.579Z,44.75
2022-08-21T09:50:30.175Z,44.61
2022-08-21T09:53:36.293Z,43.82
2022-08-21T09:57:10.885Z,43.98
2022-08-21T10:00:24.139Z,44.03
2022-08-21T10:03:27.046Z,43.29
2022-08-21T10:06:30.115Z,43.56
2022-08-21T10:09:33.650Z,46.80
2022-08-21T10:12:42.196Z,43.18
2022-08-21T10:16:09.311Z,41.64
2022-08-21T10:19:32.954Z,42.54
2022-08-21T10:22:45.368Z,41.06
2022-08-21T10:26:13.267Z,40.60
2022-08-21T10:29:55.227Z,40.42
2022-08-21T10:33:03.800Z,41.09
2022-08-21T10:36:32.446Z,42.19
2022-08-21T10:39:37.235Z,39.33
2022-08-21T10:42:52.842Z,40.69
2022-08-21T10:46:04.465Z,38.75
2022-08-21T10:49:49.149Z,38.76
2022-08-21T10:53:10.736Z,39.31
2022-08-21T10:56:19.761Z,39.43
2022-08-21T11:03:37.593Z,39.14
2022-08-21T11:06:45.928Z,39.12
2022-08-21T11:09:50.438Z,39.79
2022-08-21T11:13:01.635Z,40.24
2022-08-21T11:16:08.801Z,40.38
2022-08-21T11:19:19.124Z,39.13
2022-08-21T11:23:15.799Z,41.61
2022-08-21T11:27:01.977Z,39.52
2022-08-21T11:30:15.118Z,40.93
2022-08-21T11:33:49.454Z,38.26
2022-08-21T11:37:40.991Z,39.44
2022-08-21T11:41:10.122Z,40.69
2022-08-21T11:45:01.570Z,39.94
2022-08-21T11:48:10.157Z,40.32
2022-08-21T11:51:17.923Z,42.14
2022-08-21T11:55:04.648Z,41.89
2022-08-21T11:58:29.876Z,42.85
2022-08-21T12:01:36.169Z,42.78
2022-08-21T12:04:47.072Z,42.24
2022-08-21T12:07:49.569Z,42.85
2022-08-21T12:11:16.809Z,42.52
2022-08-21T12:14:21.950Z,41.86
2022-08-21T12:17:37.619Z,41.42
2022-08-21T12:20:50.399Z,40.64
2022-08-21T12:24:15.420Z,37.96
2022-08-21T12:27:28.135Z,38.93
2022-08-21T12:30:30.560Z,37.55
2022-08-21T12:33:39.354Z,38.04
2022-08-21T12:36:53.698Z,37.01
2022-08-21T12:39:59.401Z,37.17
2022-08-21T12:43:04.092Z,38.28
2022-08-21T12:46:07.038Z,38.96
2022-08-21T12:49:17.034Z,38.39
2022-08-21T12:53:06.513Z,40.12
2022-08-21T12:56:27.466Z,40.45
2022-08-21T12:59:31.186Z,40.94
2022-08-21T13:02:43.746Z,40.93
2022-08-21T13:05:47.843Z,38.35
2022-08-21T13:08:57.471Z,38.50
2022-08-21T13:12:01.038Z,37.54
2022-08-21T13:15:08.777Z,38.34
2022-08-21T13:18:23.584Z,39.23
2022-08-21T13:21:35.469Z,39.19
2022-08-21T13:24:43.369Z,40.92
2022-08-21T13:28:07.257Z,40.83
2022-08-21T13:31:15.396Z,40.70
2022-08-21T13:34:20.490Z,39.54
2022-08-21T13:37:24.242Z,40.33
2022-08-21T13:40:37.386Z,39.75
2022-08-21T13:43:47.317Z,40.62
2022-08-21T13:46:57.909Z,39.57
2022-08-21T13:50:08.967Z,40.54
2022-08-21T13:53:45.710Z,39.75
2022-08-21T13:56:48.420Z,38.91
2022-08-21T13:59:50.986Z,39.46
2022-08-21T14:02:55.871Z,39.67
2022-08-21T14:06:00.325Z,41.01
2022-08-21T14:09:15.006Z,40.02
2022-08-21T14:12:27.674Z,40.91
2022-08-21T14:15:32.981Z,40.57
2022-08-21T14:18:48.021Z,41.76
2022-08-21T14:21:50.680Z,42.37
2022-08-21T14:25:06.983Z,41.12
2022-08-21T14:41:22.814Z,40.17
2022-08-21T14:49:10.289Z,41.10
2022-08-21T14:52:13.979Z,41.22
2022-08-21T14:55:19.970Z,41.66
2022-08-21T14:58:24.032Z,40.75
2022-08-21T15:01:26.896Z,42.50
2022-08-21T15:04:30.043Z,41.68
2022-08-21T15:25:07.536Z,39.92
2022-08-21T15:33:11.838Z,41.57
2022-08-21T16:02:10.345Z,43.20
2022-08-21T16:42:13.602Z,47.19
2022-08-21T16:45:18.507Z,48.21
2022-08-21T16:48:21.474Z,48.80
2022-08-21T16:51:50.847Z,49.30
2022-08-21T16:54:57.778Z,49.97
2022-08-21T16:58:02.026Z,49.58
2022-08-21T17:01:11.079Z,49.19
2022-08-21T17:04:13.868Z,49.78
2022-08-21T17:07:16.301Z,49.70
2022-08-21T17:10:19.394Z,50.14
2022-08-21T17:13:21.810Z,50.29
2022-08-21T17:16:27.452Z,50.58
2022-08-21T17:19:30.762Z,51.69
2022-08-21T17:22:39.165Z,51.72
2022-08-21T17:46:47.190Z,53.50
2022-08-21T17:49:49.909Z,54.17
2022-08-21T17:54:03.460Z,54.23
2022-08-21T18:03:52.061Z,55.80
2022-08-21T18:06:55.924Z,55.62
2022-08-21T18:10:00.179Z,56.16
2022-08-21T18:13:06.191Z,56.01
2022-08-21T18:34:40.360Z,58.48
2022-08-21T18:37:44.942Z,59.39
2022-08-21T18:41:17.730Z,59.40
2022-08-21T18:48:43.673Z,60.23
2022-08-21T18:51:47.356Z,60.53
2022-08-21T18:54:49.591Z,60.86
2022-08-21T18:57:57.251Z,61.52
2022-08-21T19:00:59.721Z,61.49
2022-08-21T19:04:03.152Z,61.70
2022-08-21T19:07:05.368Z,61.82
2022-08-21T19:10:27.674Z,62.48
2022-08-21T19:13:31.894Z,62.65
2022-08-21T19:16:34.489Z,63.21
2022-08-21T19:19:39.443Z,63.46
2022-08-21T19:22:42.303Z,63.96
2022-08-21T19:26:06.804Z,64.15
2022-08-21T19:29:10.191Z,64.37
2022-08-21T19:32:12.776Z,64.66
2022-08-21T19:35:17.594Z,64.89
2022-08-21T19:38:20.412Z,65.07
2022-08-21T19:41:27.966Z,64.93
2022-08-21T19:44:31.022Z,65.60
2022-08-21T19:47:33.895Z,65.78
2022-08-21T19:50:37.184Z,65.87
2022-08-21T19:53:39.757Z,65.96
2022-08-21T19:56:42.078Z,66.00
2022-08-21T19:59:45.705Z,66.04
2022-08-21T20:02:48.437Z,66.09
2022-08-21T20:05:50.794Z,66.14
2022-08-21T20:08:56.873Z,66.16
2022-08-21T20:12:09.181Z,65.96
2022-08-21T20:15:12.441Z,66.69
2022-08-21T20:18:18.844Z,67.14
2022-08-21T20:21:20.969Z,67.08
2022-08-21T20:24:27.402Z,67.16
2022-08-21T20:27:30.074Z,66.98
2022-08-21T20:30:33.346Z,67.37
2022-08-21T20:33:36.092Z,66.73
2022-08-21T20:36:38.521Z,67.56
2022-08-21T20:39:41.154Z,68.16
2022-08-21T20:42:50.174Z,68.40
2022-08-21T20:45:52.575Z,67.88
2022-08-21T20:48:55.790Z,67.91
2022-08-21T20:51:59.841Z,67.06
2022-08-21T20:55:14.894Z,67.78
2022-08-21T20:58:33.702Z,66.96
2022-08-21T21:01:36.701Z,66.83
2022-08-21T21:04:51.683Z,68.31
2022-08-21T21:08:20.631Z,66.78
2022-08-21T21:11:34.460Z,67.86
2022-08-21T21:14:46.677Z,69.00
2022-08-21T21:18:07.746Z,68.75
2022-08-21T21:21:36.172Z,69.15
2022-08-21T21:25:00.740Z,69.39
2022-08-21T21:28:36.390Z,69.33
2022-08-21T21:31:56.537Z,68.84
2022-08-21T21:35:32.765Z,68.98
